createdAt,value
2022-08-05T00:00:33.272Z,26.00
2022-08-05T00:03:15.415Z,25.90
2022-08-05T00:06:05.122Z,26.00
2022-08-05T00:08:34.889Z,26.00
2022-08-05T00:11:23.920Z,25.90
2022-08-05T00:13:57.473Z,25.80
2022-08-05T00:16:36.235Z,25.70
2022-08-05T00:19:11.595Z,25.60
2022-08-05T00:21:38.692Z,25.60
2022-08-05T00:24:10.930Z,25.70
2022-08-05T00:26:39.211Z,25.70
2022-08-05T00:29:16.726Z,25.60
2022-08-05T00:32:09.321Z,25.60
2022-08-05T00:34:56.057Z,25.50
2022-08-05T00:37:20.070Z,25.40
2022-08-05T00:39:57.939Z,25.40
2022-08-05T00:42:37.888Z,25.30
2022-08-05T00:45:08.653Z,25.30
2022-08-05T00:47:56.249Z,25.30
2022-08-05T00:50:25.408Z,25.30
2022-08-05T00:52:55.257Z,25.30
2022-08-05T00:55:23.408Z,25.30
2022-08-05T00:58:14.193Z,25.30
2022-08-05T01:00:42.034Z,25.40
2022-08-05T01:03:22.383Z,25.40
2022-08-05T01:05:51.892Z,25.30
2022-08-05T01:08:41.597Z,25.30
2022-08-05T01:11:36.760Z,25.20
2022-08-05T01:14:30.796Z,25.30
2022-08-05T01:17:13.404Z,25.30
2022-08-05T01:20:01.790Z,25.30
2022-08-05T01:23:15.173Z,25.30
2022-08-05T01:26:17.314Z,25.40
2022-08-05T01:29:05.393Z,25.40
2022-08-05T01:31:44.905Z,25.30
2022-08-05T01:34:21.061Z,25.20
2022-08-05T01:36:55.220Z,25.00
2022-08-05T01:39:46.777Z,24.80
2022-08-05T01:42:14.348Z,24.10
2022-08-05T01:44:45.733Z,23.60
2022-08-05T01:47:22.412Z,23.10
2022-08-05T01:50:01.885Z,22.80
2022-08-05T01:52:32.267Z,22.50
2022-08-05T01:55:05.877Z,22.40
2022-08-05T01:58:29.164Z,22.20
2022-08-05T02:00:30.026Z,22.20
2022-08-05T02:03:24.388Z,22.10
2022-08-05T02:05:59.652Z,21.90
2022-08-05T02:08:30.861Z,21.80
2022-08-05T02:11:12.228Z,21.80
2022-08-05T02:13:53.424Z,21.80
2022-08-05T02:16:52.906Z,21.70
2022-08-05T02:19:47.043Z,21.90
2022-08-05T02:22:26.560Z,22.10
2022-08-05T02:25:08.411Z,22.00
2022-08-05T02:27:58.455Z,21.80
2022-08-05T02:30:37.435Z,21.60
2022-08-05T02:33:24.561Z,21.50
2022-08-05T02:36:13.652Z,21.50
2022-08-05T02:38:53.478Z,21.40
2022-08-05T02:41:23.267Z,21.20
2022-08-05T02:44:06.172Z,21.00
2022-08-05T02:46:53.505Z,20.80
2022-08-05T02:49:40.616Z,20.70
2022-08-05T02:52:25.949Z,20.70
2022-08-05T02:55:02.019Z,20.70
2022-08-05T02:58:19.949Z,20.60
2022-08-05T03:00:20.905Z,20.50
2022-08-05T03:02:48.723Z,20.40
2022-08-05T03:05:17.151Z,20.40
2022-08-05T03:08:06.958Z,20.30
2022-08-05T03:10:36.043Z,20.30
2022-08-05T03:13:20.159Z,20.30
2022-08-05T03:15:54.500Z,20.40
2022-08-05T03:18:29.833Z,20.40
2022-08-05T03:20:57.099Z,20.30
2022-08-05T03:23:24.862Z,20.30
2022-08-05T03:26:04.615Z,20.40
2022-08-05T03:28:38.994Z,20.40
2022-08-05T03:31:06.475Z,20.40
2022-08-05T03:33:52.985Z,20.50
2022-08-05T03:36:28.031Z,20.50
2022-08-05T03:38:58.268Z,20.50
2022-08-05T03:41:25.604Z,20.60
2022-08-05T03:44:11.637Z,20.70
2022-08-05T03:46:38.974Z,20.60
2022-08-05T03:49:06.711Z,20.50
2022-08-05T03:52:38.455Z,20.50
2022-08-05T03:55:50.559Z,20.60
2022-08-05T03:57:42.268Z,20.70
2022-08-05T04:00:15.628Z,20.60
2022-08-05T04:02:57.606Z,20.60
2022-08-05T04:05:33.914Z,20.60
2022-08-05T04:08:14.864Z,20.50
2022-08-05T04:10:56.623Z,20.50
2022-08-05T04:13:25.880Z,20.50
2022-08-05T04:16:14.385Z,20.50
2022-08-05T04:18:41.613Z,20.60
2022-08-05T04:21:11.021Z,20.70
2022-08-05T04:24:01.091Z,20.70
2022-08-05T04:26:26.466Z,20.70
2022-08-05T04:29:00.111Z,20.80
2022-08-05T04:31:27.696Z,20.90
2022-08-05T04:34:31.668Z,21.00
2022-08-05T04:36:52.941Z,21.00
2022-08-05T04:39:20.659Z,21.10
2022-08-05T04:41:51.144Z,21.20
2022-08-05T04:44:28.995Z,21.20
2022-08-05T04:46:59.218Z,21.30
2022-08-05T04:49:39.082Z,21.40
2022-08-05T04:52:15.144Z,21.50
2022-08-05T04:54:42.256Z,21.60
2022-08-05T04:57:09.281Z,21.60
2022-08-05T04:59:38.537Z,21.60
2022-08-05T05:02:36.282Z,21.60
2022-08-05T05:05:02.780Z,21.60
2022-08-05T05:07:32.686Z,21.60
2022-08-05T05:10:04.108Z,21.60
2022-08-05T05:12:31.286Z,21.60
2022-08-05T05:14:58.398Z,21.50
2022-08-05T05:17:56.511Z,21.50
2022-08-05T05:20:14.141Z,21.50
2022-08-05T05:22:44.156Z,21.60
2022-08-05T05:25:16.408Z,21.70
2022-08-05T05:27:48.780Z,21.70
2022-08-05T05:30:30.954Z,21.80
2022-08-05T05:33:16.092Z,22.00
2022-08-05T05:35:47.728Z,22.20
2022-08-05T05:38:22.679Z,22.30
2022-08-05T05:43:57.130Z,22.40
2022-08-05T05:46:17.674Z,22.40
2022-08-05T05:48:48.301Z,22.40
2022-08-05T05:51:24.410Z,22.40
2022-08-05T05:53:58.751Z,22.50
2022-08-05T05:56:34.457Z,22.50
2022-08-05T05:59:07.800Z,22.50
2022-08-05T06:01:40.137Z,22.20
2022-08-05T06:04:11.654Z,21.80
2022-08-05T06:06:47.260Z,21.30
2022-08-05T06:09:24.870Z,21.00
2022-08-05T06:12:01.070Z,20.90
2022-08-05T06:14:30.150Z,20.90
2022-08-05T06:16:57.920Z,20.70
2022-08-05T06:19:34.773Z,20.50
2022-08-05T06:22:06.940Z,20.40
2022-08-05T06:24:36.064Z,20.50
2022-08-05T06:27:04.137Z,20.50
2022-08-05T06:29:49.268Z,20.40
2022-08-05T06:32:25.493Z,20.40
2022-08-05T06:34:56.531Z,20.40
2022-08-05T06:37:56.635Z,20.40
2022-08-05T06:40:18.249Z,20.40
2022-08-05T06:42:52.260Z,20.30
2022-08-05T06:45:44.943Z,20.30
2022-08-05T06:48:37.016Z,20.20
2022-08-05T06:50:57.653Z,20.10
2022-08-05T06:53:28.609Z,20.10
2022-08-05T06:56:00.435Z,20.10
2022-08-05T06:58:34.858Z,20.00
2022-08-05T07:01:06.487Z,20.10
2022-08-05T07:03:34.286Z,20.10
2022-08-05T07:06:05.907Z,20.20
2022-08-05T07:08:47.296Z,20.10
2022-08-05T07:11:16.187Z,20.10
2022-08-05T07:14:02.455Z,20.20
2022-08-05T07:18:00.371Z,20.30
2022-08-05T07:22:28.291Z,20.50
2022-08-05T07:25:22.870Z,20.50
2022-08-05T07:27:57.064Z,20.60
2022-08-05T07:30:31.054Z,20.60
2022-08-05T07:33:05.558Z,20.60
2022-08-05T07:36:01.748Z,20.70
2022-08-05T07:38:33.409Z,20.90
2022-08-05T07:42:09.594Z,21.00
2022-08-05T07:43:57.465Z,21.20
2022-08-05T07:46:26.903Z,21.20
2022-08-05T07:49:01.452Z,21.20
2022-08-05T07:51:41.023Z,21.20
2022-08-05T07:54:23.156Z,21.00
2022-08-05T07:57:02.367Z,21.00
2022-08-05T07:59:41.269Z,21.10
2022-08-05T08:02:16.902Z,21.20
2022-08-05T08:04:46.648Z,21.30
2022-08-05T08:07:15.040Z,21.40
2022-08-05T08:09:43.072Z,21.40
2022-08-05T08:12:27.419Z,21.70
2022-08-05T08:15:02.543Z,21.80
2022-08-05T08:17:32.221Z,21.90
2022-08-05T08:20:22.756Z,21.90
2022-08-05T08:22:52.216Z,21.80
2022-08-05T08:25:26.755Z,21.90
2022-08-05T08:28:17.995Z,22.10
2022-08-05T08:30:48.723Z,22.40
2022-08-05T08:33:17.462Z,22.80
2022-08-05T08:35:52.937Z,23.10
2022-08-05T08:38:35.176Z,23.10
2022-08-05T08:41:08.563Z,23.30
2022-08-05T08:45:20.551Z,23.60
2022-08-05T08:46:30.543Z,23.90
2022-08-05T08:50:03.741Z,24.00
2022-08-05T08:52:13.788Z,24.20
2022-08-05T08:54:55.517Z,24.40
2022-08-05T08:57:29.302Z,24.70
2022-08-05T09:00:13.276Z,24.50
2022-08-05T09:02:44.501Z,24.30
2022-08-05T09:05:17.320Z,24.20
2022-08-05T09:07:57.634Z,24.10
2022-08-05T09:10:27.818Z,24.20
2022-08-05T09:13:04.754Z,24.20
2022-08-05T09:15:37.073Z,24.20
2022-08-05T09:18:10.378Z,24.20
2022-08-05T09:20:43.548Z,24.40
2022-08-05T09:23:21.656Z,24.60
2022-08-05T09:26:08.575Z,24.90
2022-08-05T09:28:39.137Z,25.10
2022-08-05T09:31:44.159Z,25.20
2022-08-05T09:34:11.552Z,25.10
2022-08-05T09:36:56.143Z,25.10
2022-08-05T09:39:45.798Z,24.90
2022-08-05T09:42:24.474Z,24.70
2022-08-05T09:44:57.496Z,24.40
2022-08-05T09:47:49.003Z,24.10
2022-08-05T09:50:38.081Z,24.00
2022-08-05T09:53:09.100Z,23.90
2022-08-05T09:55:56.506Z,23.90
2022-08-05T09:58:29.106Z,24.10
2022-08-05T10:01:14.667Z,24.00
2022-08-05T10:04:11.119Z,24.10
2022-08-05T10:06:59.508Z,24.00
2022-08-05T10:09:29.674Z,24.00
2022-08-05T10:12:18.916Z,23.90
2022-08-05T10:15:27.284Z,23.90
2022-08-05T10:18:16.694Z,23.30
2022-08-05T10:20:55.557Z,23.00
2022-08-05T10:23:59.008Z,23.00
2022-08-05T10:26:24.319Z,23.20
2022-08-05T10:28:59.780Z,23.50
2022-08-05T10:32:51.484Z,23.90
2022-08-05T10:36:44.314Z,25.10
2022-08-05T10:40:03.813Z,25.50
2022-08-05T10:42:33.498Z,25.70
2022-08-05T10:45:21.510Z,25.50
2022-08-05T10:48:30.176Z,25.30
2022-08-05T10:51:21.957Z,25.10
2022-08-05T10:53:58.413Z,25.00
2022-08-05T10:56:43.855Z,24.60
2022-08-05T11:00:03.581Z,24.30
2022-08-05T11:02:14.764Z,24.50
2022-08-05T11:05:05.219Z,24.70
2022-08-05T11:07:33.290Z,24.80
2022-08-05T11:10:29.195Z,25.00
2022-08-05T11:12:58.973Z,25.20
2022-08-05T11:15:59.338Z,25.50
2022-08-05T11:18:34.329Z,25.40
2022-08-05T11:21:02.890Z,25.30
2022-08-05T11:24:03.076Z,25.40
2022-08-05T11:26:33.752Z,25.60
2022-08-05T11:29:13.805Z,25.50
2022-08-05T11:31:53.913Z,25.50
2022-08-05T11:34:51.665Z,25.20
2022-08-05T11:38:27.823Z,25.20
2022-08-05T11:41:54.389Z,25.30
2022-08-05T11:44:11.585Z,25.50
2022-08-05T11:46:58.224Z,25.50
2022-08-05T11:49:28.003Z,25.50
2022-08-05T11:51:57.699Z,25.70
2022-08-05T11:54:34.407Z,25.90
2022-08-05T11:57:08.458Z,26.20
2022-08-05T11:59:51.871Z,26.40
2022-08-05T12:02:31.367Z,26.50
2022-08-05T12:05:07.175Z,26.50
2022-08-05T12:08:03.443Z,26.20
2022-08-05T12:10:43.454Z,26.20
2022-08-05T12:13:18.630Z,25.80
2022-08-05T12:15:55.816Z,25.50
2022-08-05T12:18:34.786Z,25.30
2022-08-05T12:21:23.651Z,25.00
2022-08-05T12:24:04.264Z,24.80
2022-08-05T12:26:43.834Z,24.90
2022-08-05T12:29:23.019Z,24.90
2022-08-05T12:32:02.006Z,24.80
2022-08-05T12:34:36.967Z,24.80
2022-08-05T12:37:17.284Z,24.80
2022-08-05T12:39:51.973Z,24.80
2022-08-05T12:42:21.587Z,24.90
2022-08-05T12:44:52.330Z,25.00
2022-08-05T12:47:31.957Z,25.20
2022-08-05T12:50:03.163Z,25.40
2022-08-05T12:52:39.365Z,25.70
2022-08-05T12:55:32.604Z,26.60
2022-08-05T12:58:51.397Z,27.00
2022-08-05T13:01:59.711Z,27.40
2022-08-05T13:03:42.464Z,27.50
2022-08-05T13:06:15.915Z,27.60
2022-08-05T13:08:50.892Z,27.70
2022-08-05T13:11:25.580Z,28.30
2022-08-05T13:14:20.214Z,29.00
2022-08-05T13:16:58.744Z,29.50
2022-08-05T13:19:51.668Z,29.80
2022-08-05T13:22:27.985Z,29.90
2022-08-05T13:25:00.675Z,29.90
2022-08-05T13:27:42.618Z,30.10
2022-08-05T13:30:34.953Z,30.10
2022-08-05T13:33:01.550Z,30.00
2022-08-05T13:35:42.454Z,30.30
2022-08-05T13:38:20.391Z,30.10
2022-08-05T13:40:57.432Z,30.20
2022-08-05T13:43:24.355Z,30.10
2022-08-05T13:46:12.028Z,29.90
2022-08-05T13:48:58.712Z,29.90
2022-08-05T13:51:40.360Z,29.60
2022-08-05T13:54:13.456Z,30.00
2022-08-05T13:56:45.190Z,30.30
2022-08-05T13:59:27.529Z,30.50
2022-08-05T14:02:00.288Z,30.10
2022-08-05T14:04:54.543Z,29.80
2022-08-05T14:07:59.774Z,29.30
2022-08-05T14:10:28.567Z,28.80
2022-08-05T14:12:58.578Z,28.80
2022-08-05T14:16:05.914Z,29.10
2022-08-05T14:18:18.080Z,29.90
2022-08-05T14:20:48.167Z,30.60
2022-08-05T14:23:19.295Z,31.10
2022-08-05T14:28:30.838Z,31.20
2022-08-05T14:31:01.572Z,31.30
2022-08-05T14:33:32.659Z,31.20
2022-08-05T14:36:16.034Z,31.20
2022-08-05T14:38:49.494Z,30.60
2022-08-05T14:41:18.529Z,30.20
2022-08-05T14:43:59.695Z,30.20
2022-08-05T14:46:35.263Z,30.00
2022-08-05T14:49:07.259Z,30.00
2022-08-05T14:51:42.936Z,30.00
2022-08-05T14:54:28.098Z,30.20
2022-08-05T14:56:58.307Z,30.30
2022-08-05T14:59:29.349Z,29.90
2022-08-05T15:02:02.731Z,29.90
2022-08-05T15:04:29.992Z,29.50
2022-08-05T15:06:57.254Z,29.10
2022-08-05T15:09:53.526Z,28.80
2022-08-05T15:12:16.833Z,28.20
2022-08-05T15:14:50.071Z,28.00
2022-08-05T15:17:46.058Z,28.40
2022-08-05T15:20:15.550Z,28.00
2022-08-05T15:22:44.706Z,27.00
2022-08-05T15:25:14.388Z,26.30
2022-08-05T15:27:42.944Z,25.60
2022-08-05T15:30:19.409Z,25.30
2022-08-05T15:32:46.775Z,24.80
2022-08-05T15:35:14.985Z,24.50
2022-08-05T15:38:34.273Z,24.30
2022-08-05T15:40:59.591Z,23.80
2022-08-05T15:43:20.280Z,23.40
2022-08-05T15:45:59.897Z,23.00
2022-08-05T15:48:28.541Z,22.90
2022-08-05T15:50:56.487Z,23.00
2022-08-05T15:53:23.563Z,22.90
2022-08-05T15:56:01.884Z,22.70
2022-08-05T15:58:35.757Z,22.60
2022-08-05T16:01:16.653Z,22.40
2022-08-05T16:03:50.530Z,22.50
2022-08-05T16:06:19.721Z,22.50
2022-08-05T16:08:51.252Z,22.40
2022-08-05T16:11:42.973Z,22.60
2022-08-05T16:14:10.143Z,22.70
2022-08-05T16:16:45.194Z,22.60
2022-08-05T16:19:25.669Z,22.50
2022-08-05T16:22:03.463Z,22.20
2022-08-05T16:24:41.840Z,22.20
2022-08-05T16:27:18.859Z,22.10
2022-08-05T16:29:51.064Z,22.30
2022-08-05T16:32:28.740Z,22.30
2022-08-05T16:34:57.734Z,22.30
2022-08-05T16:38:15.000Z,22.40
2022-08-05T16:40:28.627Z,22.50
2022-08-05T16:42:56.333Z,22.50
2022-08-05T16:46:08.137Z,22.50
2022-08-05T16:48:10.556Z,22.50
2022-08-05T16:50:37.671Z,22.40
2022-08-05T16:53:12.568Z,22.40
2022-08-05T16:55:49.713Z,22.50
2022-08-05T16:58:19.911Z,22.30
2022-08-05T17:00:48.128Z,22.40
2022-08-05T17:03:20.263Z,22.40
2022-08-05T17:05:53.593Z,22.40
2022-08-05T17:08:36.088Z,22.20
2022-08-05T17:11:12.795Z,22.00
2022-08-05T17:13:47.155Z,22.00
2022-08-05T17:16:33.480Z,21.90
2022-08-05T17:19:01.939Z,21.90
2022-08-05T17:21:35.556Z,21.80
2022-08-05T17:24:19.508Z,21.80
2022-08-05T17:27:00.718Z,21.70
2022-08-05T17:29:33.288Z,21.60
2022-08-05T17:32:11.481Z,21.60
2022-08-05T17:34:47.813Z,21.70
2022-08-05T17:37:40.866Z,21.80
2022-08-05T17:40:12.410Z,21.70
2022-08-05T17:42:51.369Z,21.70
2022-08-05T17:45:29.533Z,21.90
2022-08-05T17:48:07.600Z,21.90
2022-08-05T17:50:34.840Z,21.80
2022-08-05T17:53:04.717Z,21.70
2022-08-05T17:55:38.148Z,21.80
2022-08-05T17:58:13.492Z,22.00
2022-08-05T18:00:47.732Z,21.90
2022-08-05T18:06:12.127Z,22.00
2022-08-05T18:08:45.882Z,22.20
2022-08-05T18:11:23.145Z,22.20
2022-08-05T18:13:52.459Z,22.20
2022-08-05T18:16:20.390Z,22.20
2022-08-05T18:18:48.065Z,22.10
2022-08-05T18:21:21.155Z,22.00
2022-08-05T18:23:53.736Z,21.90
2022-08-05T18:26:29.122Z,22.00
2022-08-05T18:28:57.138Z,22.00
2022-08-05T18:31:24.600Z,22.00
2022-08-05T18:33:52.379Z,22.00
2022-08-05T18:36:19.567Z,22.00
2022-08-05T18:38:55.595Z,21.90
2022-08-05T18:41:56.636Z,21.80
2022-08-05T18:44:10.901Z,21.70
2022-08-05T18:46:41.008Z,21.60
2022-08-05T18:49:30.491Z,21.40
2022-08-05T18:52:16.323Z,21.30
2022-08-05T18:54:45.875Z,21.20
2022-08-05T18:57:15.270Z,21.10
2022-08-05T19:00:01.442Z,21.00
2022-08-05T19:02:30.459Z,20.90
2022-08-05T19:05:02.460Z,20.80
2022-08-05T19:07:49.635Z,20.70
2022-08-05T19:10:19.181Z,20.60
2022-08-05T19:12:56.042Z,20.50
2022-08-05T19:15:54.647Z,20.40
2022-08-05T19:18:20.584Z,20.40
2022-08-05T19:20:52.050Z,20.30
2022-08-05T19:24:04.139Z,20.30
2022-08-05T19:26:08.442Z,20.30
2022-08-05T19:28:41.816Z,20.20
2022-08-05T19:31:12.979Z,20.10
2022-08-05T19:33:48.516Z,20.00
2022-08-05T19:36:26.396Z,20.00
2022-08-05T19:38:55.280Z,19.90
2022-08-05T19:41:58.323Z,19.80
2022-08-05T19:44:19.386Z,19.80
2022-08-05T19:46:47.123Z,19.80
2022-08-05T19:49:19.805Z,19.70
2022-08-05T19:52:05.522Z,19.70
2022-08-05T19:54:35.387Z,19.60
2022-08-05T19:57:09.669Z,19.50
2022-08-05T19:59:59.410Z,19.50
2022-08-05T20:02:30.196Z,19.50
2022-08-05T20:04:59.492Z,19.40
2022-08-05T20:07:48.173Z,19.40
2022-08-05T20:10:17.013Z,19.40
2022-08-05T20:12:47.790Z,19.40
2022-08-05T20:15:48.177Z,19.30
2022-08-05T20:18:10.990Z,19.30
2022-08-05T20:20:57.239Z,19.20
2022-08-05T20:23:39.750Z,19.20
2022-08-05T20:26:16.451Z,19.10
2022-08-05T20:28:55.860Z,19.10
2022-08-05T20:31:41.981Z,19.10
2022-08-05T20:34:15.952Z,19.10
2022-08-05T20:36:43.938Z,19.00
2022-08-05T20:39:13.559Z,19.00
2022-08-05T20:41:45.014Z,19.00
2022-08-05T20:44:18.808Z,18.90
2022-08-05T20:46:56.816Z,18.90
2022-08-05T20:49:24.598Z,18.90
2022-08-05T20:51:54.182Z,18.90
2022-08-05T20:54:22.741Z,18.80
2022-08-05T20:56:53.090Z,18.70
2022-08-05T20:59:26.434Z,18.60
2022-08-05T21:01:57.291Z,18.60
2022-08-05T21:04:26.955Z,18.60
2022-08-05T21:06:55.157Z,18.50
2022-08-05T21:09:22.880Z,18.50
2022-08-05T21:12:07.139Z,18.40
2022-08-05T21:14:38.271Z,18.40
2022-08-05T21:17:05.930Z,18.30
2022-08-05T21:19:47.605Z,18.30
2022-08-05T21:22:23.182Z,18.20
2022-08-05T21:24:57.109Z,18.20
2022-08-05T21:27:25.088Z,18.20
2022-08-05T21:29:56.252Z,18.20
2022-08-05T21:32:26.894Z,18.20
2022-08-05T21:35:08.682Z,18.10
2022-08-05T21:37:47.357Z,18.10
2022-08-05T21:40:24.011Z,18.00
2022-08-05T21:42:53.579Z,18.00
2022-08-05T21:45:24.569Z,18.00
2022-08-05T21:47:56.501Z,17.90
2022-08-05T21:50:26.282Z,17.80
2022-08-05T21:52:58.734Z,17.80
2022-08-05T21:56:01.496Z,17.80
2022-08-05T21:58:19.440Z,17.70
2022-08-05T22:00:51.264Z,17.70
2022-08-05T22:03:20.664Z,17.60
2022-08-05T22:06:06.343Z,17.50
2022-08-05T22:08:35.203Z,17.40
2022-08-05T22:11:02.202Z,17.30
2022-08-05T22:14:06.122Z,17.30
2022-08-05T22:16:41.174Z,17.30
2022-08-05T22:19:15.944Z,17.20
2022-08-05T22:21:54.592Z,17.20
2022-08-05T22:24:52.166Z,17.20
2022-08-05T22:28:08.772Z,17.20
2022-08-05T22:30:32.148Z,17.20
2022-08-05T22:33:03.029Z,17.10
2022-08-05T22:35:31.206Z,17.10
2022-08-05T22:38:16.962Z,17.00
2022-08-05T22:40:49.565Z,16.90
2022-08-05T22:43:36.674Z,16.90
2022-08-05T22:46:12.303Z,16.80
2022-08-05T22:48:42.152Z,16.90
2022-08-05T22:51:16.044Z,16.80
2022-08-05T22:53:49.981Z,16.80
2022-08-05T22:56:17.998Z,16.70
2022-08-05T22:59:00.036Z,16.70
2022-08-05T23:02:04.733Z,16.60
2022-08-05T23:04:17.235Z,16.70
2022-08-05T23:06:44.171Z,16.70
2022-08-05T23:09:27.155Z,16.60
2022-08-05T23:11:55.128Z,16.70
2022-08-05T23:14:32.417Z,16.70
2022-08-05T23:17:24.318Z,16.60
2022-08-05T23:20:01.075Z,16.60
2022-08-05T23:22:30.800Z,16.60
2022-08-05T23:24:58.000Z,16.50
2022-08-05T23:27:28.875Z,16.60
2022-08-05T23:30:10.702Z,16.50
2022-08-05T23:32:37.984Z,16.50
2022-08-05T23:35:12.448Z,16.50
2022-08-05T23:37:39.331Z,16.40
2022-08-05T23:40:07.703Z,16.40
2022-08-05T23:42:37.744Z,16.40
2022-08-05T23:45:14.140Z,16.50
2022-08-05T23:47:47.895Z,16.40
2022-08-05T23:50:15.400Z,16.40
2022-08-05T23:52:50.434Z,16.40
2022-08-05T23:55:19.086Z,16.40
2022-08-05T23:57:51.034Z,16.40
